Time;durP1;ratioP1;P1;durP2;ratioP2;P2;SDS_P1;SDS_P2;PMS_P1;PMS_P2;Temp;Humidity;BMP_temperature;BMP_pressure;BME280_temperature;BME280_humidity;BME280_pressure;Samples;Min_cycle;Max_cycle;Signal;HPM_P1;HPM_P2
2021/03/26 00:00:51;;;;;;;3.53;2.53;;;18.20;50.80;;;;;;4909030;29;20591;-70
2021/03/26 00:03:21;;;;;;;3.65;2.70;;;18.20;50.80;;;;;;4915484;29;20251;-69
2021/03/26 00:05:47;;;;;;;2.88;2.50;;;18.20;50.80;;;;;;4915734;29;20540;-70
2021/03/26 00:08:14;;;;;;;2.95;2.50;;;18.20;50.80;;;;;;4915283;29;20632;-70
2021/03/26 00:10:39;;;;;;;2.72;2.50;;;18.10;50.70;;;;;;4915606;29;20644;-69
2021/03/26 00:13:05;;;;;;;3.30;2.63;;;18.10;50.80;;;;;;4899821;29;20209;-71
2021/03/26 00:15:31;;;;;;;2.90;2.60;;;18.10;51.40;;;;;;4915778;29;20171;-70
2021/03/26 00:17:56;;;;;;;2.78;2.58;;;18.10;50.80;;;;;;4916705;29;20190;-70
2021/03/26 00:20:22;;;;;;;3.22;3.03;;;18.10;50.80;;;;;;4915454;29;20175;-70
2021/03/26 00:22:48;;;;;;;2.60;2.40;;;18.00;50.70;;;;;;4916229;29;20180;-68
2021/03/26 00:25:14;;;;;;;3.58;2.60;;;18.10;50.70;;;;;;4915524;29;20526;-69
2021/03/26 00:27:40;;;;;;;2.42;2.22;;;18.00;50.70;;;;;;4915371;29;20172;-68
2021/03/26 00:30:07;;;;;;;2.70;2.50;;;18.00;50.70;;;;;;4914884;29;20172;-68
2021/03/26 00:32:33;;;;;;;3.13;2.67;;;18.00;50.70;;;;;;4915164;29;20640;-68
2021/03/26 00:34:59;;;;;;;2.80;2.60;;;18.00;50.70;;;;;;4915369;29;20331;-69
2021/03/26 00:37:25;;;;;;;3.20;2.70;;;18.00;50.70;;;;;;4914644;29;20671;-71
2021/03/26 00:39:50;;;;;;;2.28;2.10;;;18.00;50.70;;;;;;4915488;29;20218;-70
2021/03/26 00:42:16;;;;;;;4.00;2.88;;;18.00;50.70;;;;;;4915422;29;20176;-70
2021/03/26 00:44:42;;;;;;;3.67;2.63;;;18.00;50.70;;;;;;4898698;29;20204;-69
2021/03/26 00:47:08;;;;;;;2.53;2.33;;;17.90;50.60;;;;;;4915355;29;20176;-69
2021/03/26 00:49:33;;;;;;;2.40;2.20;;;18.00;50.60;;;;;;4916188;29;20644;-68
2021/03/26 00:51:59;;;;;;;3.45;2.70;;;17.90;50.60;;;;;;4914709;29;20175;-68
2021/03/26 00:54:24;;;;;;;3.13;2.58;;;17.90;50.60;;;;;;4915015;29;20708;-69
2021/03/26 00:56:50;;;;;;;2.67;2.47;;;17.90;50.60;;;;;;4916488;29;20183;-69
2021/03/26 00:59:16;;;;;;;2.63;2.42;;;17.90;50.60;;;;;;4915628;29;20363;-69
2021/03/26 01:01:41;;;;;;;2.80;2.60;;;17.90;50.60;;;;;;4914985;29;20196;-70
2021/03/26 01:04:07;;;;;;;2.92;2.72;;;17.90;50.60;;;;;;4915103;29;20976;-68
2021/03/26 01:06:32;;;;;;;2.83;2.63;;;17.90;50.60;;;;;;4898499;29;20179;-70
2021/03/26 01:08:58;;;;;;;2.50;2.30;;;17.90;50.60;;;;;;4915070;29;20180;-70
2021/03/26 01:11:27;;;;;;;2.72;2.38;;;17.80;50.50;;;;;;4914832;29;20164;-70
2021/03/26 01:13:55;;;;;;;2.70;2.50;;;17.80;50.60;;;;;;4899102;29;20314;-71
2021/03/26 01:16:21;;;;;;;2.95;2.63;;;17.80;50.60;;;;;;4899257;29;20537;-70
2021/03/26 01:18:47;;;;;;;2.85;2.42;;;17.80;50.50;;;;;;4914377;29;20318;-70
2021/03/26 01:21:15;;;;;;;2.83;2.53;;;17.80;50.50;;;;;;4915031;29;20199;-70
2021/03/26 01:23:41;;;;;;;2.47;2.28;;;17.80;50.50;;;;;;4914585;29;20176;-68
2021/03/26 01:26:07;;;;;;;2.75;2.53;;;17.80;50.50;;;;;;4914455;29;20219;-68
2021/03/26 01:28:33;;;;;;;3.15;2.92;;;17.80;50.50;;;;;;4918038;29;20207;-68
2021/03/26 01:30:58;;;;;;;2.70;2.50;;;17.80;50.50;;;;;;4918607;29;20579;-68
2021/03/26 01:33:24;;;;;;;3.08;2.78;;;17.70;50.50;;;;;;4917841;29;20210;-69
2021/03/26 01:35:50;;;;;;;3.03;2.72;;;17.80;50.50;;;;;;4918475;29;20165;-70
2021/03/26 01:38:16;;;;;;;2.85;2.65;;;17.70;50.40;;;;;;4919682;29;20423;-71
2021/03/26 01:40:47;;;;;;;2.55;2.22;;;17.70;50.40;;;;;;4917672;29;20186;-68
2021/03/26 01:43:15;;;;;;;2.90;2.70;;;17.70;50.50;;;;;;4918472;29;20176;-69
2021/03/26 01:45:41;;;;;;;3.10;2.75;;;17.70;50.40;;;;;;4917988;29;20200;-68
2021/03/26 01:48:08;;;;;;;3.30;3.00;;;17.70;50.50;;;;;;4917768;29;20215;-68
2021/03/26 01:50:34;;;;;;;4.13;2.75;;;17.70;50.40;;;;;;4918025;29;20180;-69
2021/03/26 01:53:00;;;;;;;3.50;3.20;;;17.70;50.40;;;;;;4918094;29;20655;-68
2021/03/26 01:55:45;;;;;;;3.45;2.50;;;17.70;50.40;;;;;;4901491;29;20184;-69
2021/03/26 01:58:16;;;;;;;3.20;2.90;;;17.70;50.40;;;;;;4918269;29;20739;-69
2021/03/26 02:00:47;;;;;;;2.90;2.67;;;17.70;50.40;;;;;;4917021;29;20320;-69
2021/03/26 02:03:25;;;;;;;3.20;2.83;;;17.70;50.40;;;;;;4918283;29;20171;-69
2021/03/26 02:05:52;;;;;;;3.03;2.72;;;17.70;50.40;;;;;;4918980;29;20175;-68
2021/03/26 02:08:23;;;;;;;2.83;2.63;;;17.60;50.40;;;;;;4901586;29;20184;-71
2021/03/26 02:10:49;;;;;;;3.42;3.13;;;17.60;51.00;;;;;;4917955;29;20246;-70
2021/03/26 02:13:24;;;;;;;2.60;2.40;;;17.60;50.40;;;;;;4917909;29;20644;-70
2021/03/26 02:15:50;;;;;;;2.67;2.47;;;17.60;50.40;;;;;;4917134;29;20171;-71
2021/03/26 02:18:27;;;;;;;3.00;2.78;;;17.60;50.40;;;;;;4901922;29;20270;-70
2021/03/26 02:20:55;;;;;;;2.83;2.58;;;17.60;51.10;;;;;;4917843;29;20176;-69
2021/03/26 02:23:22;;;;;;;2.92;2.72;;;17.60;50.40;;;;;;4916831;29;20200;-68
2021/03/26 02:25:48;;;;;;;3.58;3.00;;;17.60;50.40;;;;;;4917521;29;20176;-68
2021/03/26 02:28:14;;;;;;;2.50;2.30;;;17.60;50.40;;;;;;4917879;29;20176;-68
2021/03/26 02:30:44;;;;;;;3.08;2.88;;;17.60;50.40;;;;;;4916814;29;20183;-68
2021/03/26 02:33:10;;;;;;;3.22;2.95;;;17.60;50.40;;;;;;4917571;29;20179;-69
2021/03/26 02:35:37;;;;;;;3.20;2.90;;;17.60;50.40;;;;;;4917205;29;20172;-71
2021/03/26 02:38:31;;;;;;;3.10;2.80;;;17.60;50.40;;;;;;4916813;29;20179;-70
2021/03/26 02:41:08;;;;;;;2.90;2.70;;;17.50;51.10;;;;;;4917555;29;20179;-69
2021/03/26 02:44:05;;;;;;;3.30;3.00;;;17.50;50.40;;;;;;4900725;29;20203;-69
2021/03/26 02:46:35;;;;;;;2.97;2.67;;;17.50;50.40;;;;;;4917228;29;20179;-68
2021/03/26 02:49:17;;;;;;;2.92;2.63;;;17.50;50.40;;;;;;4917273;29;20176;-69
2021/03/26 02:52:15;;;;;;;3.40;3.10;;;17.50;50.40;;;;;;4916381;29;20207;-71
2021/03/26 02:54:54;;;;;;;3.75;3.22;;;17.50;50.40;;;;;;4866685;29;20314;-68
2021/03/26 02:57:29;;;;;;;3.53;3.05;;;17.50;50.40;;;;;;4916358;29;20206;-70
2021/03/26 03:00:27;;;;;;;3.25;3.05;;;17.50;50.40;;;;;;4916952;29;20345;-70
2021/03/26 03:02:55;;;;;;;3.08;2.78;;;17.50;50.40;;;;;;4896001;29;20586;-69
2021/03/26 03:05:30;;;;;;;3.22;2.92;;;17.50;50.40;;;;;;4916314;29;20233;-70
2021/03/26 03:08:00;;;;;;;3.35;3.05;;;17.40;50.40;;;;;;4916849;29;20167;-69
2021/03/26 03:10:32;;;;;;;2.85;2.65;;;17.40;50.40;;;;;;4916709;29;20597;-71
2021/03/26 03:13:32;;;;;;;3.47;3.20;;;17.40;50.40;;;;;;4916122;29;20214;-69
2021/03/26 03:16:17;;;;;;;3.50;3.20;;;17.40;50.40;;;;;;4900797;29;20183;-70
2021/03/26 03:18:56;;;;;;;3.55;3.25;;;17.40;50.40;;;;;;4916106;29;20207;-69
2021/03/26 03:21:43;;;;;;;3.53;2.92;;;17.40;50.30;;;;;;4900929;29;20628;-69
2021/03/26 03:24:16;;;;;;;3.72;3.42;;;17.40;50.40;;;;;;4916557;29;20207;-69
2021/03/26 03:26:58;;;;;;;4.13;3.28;;;17.40;50.40;;;;;;4915749;29;20183;-68
2021/03/26 03:29:31;;;;;;;3.00;2.80;;;17.40;50.40;;;;;;4916282;29;20179;-68
2021/03/26 03:32:13;;;;;;;3.17;2.92;;;17.40;50.40;;;;;;4916333;29;20200;-69
2021/03/26 03:34:40;;;;;;;3.47;3.17;;;17.40;51.00;;;;;;4916308;29;20631;-69
2021/03/26 03:37:24;;;;;;;3.67;3.38;;;17.40;50.40;;;;;;4916439;29;20251;-71
2021/03/26 03:40:03;;;;;;;3.50;3.20;;;17.30;50.40;;;;;;4915660;29;20199;-69
2021/03/26 03:42:44;;;;;;;3.03;2.83;;;17.30;50.40;;;;;;4916015;29;20167;-71
2021/03/26 03:45:41;;;;;;;3.33;3.05;;;17.30;50.40;;;;;;4916273;29;20171;-70
2021/03/26 03:48:28;;;;;;;3.40;3.10;;;17.30;50.40;;;;;;4899960;29;20259;-69
2021/03/26 03:51:19;;;;;;;3.13;2.83;;;17.30;50.40;;;;;;4915762;29;20207;-68
2021/03/26 03:54:03;;;;;;;3.63;3.15;;;17.30;50.40;;;;;;4915522;29;20640;-68
2021/03/26 03:56:39;;;;;;;2.80;2.60;;;17.30;50.40;;;;;;4915911;29;20236;-70
2021/03/26 03:59:29;;;;;;;3.33;3.13;;;17.30;50.40;;;;;;4915927;29;20201;-70
2021/03/26 04:02:09;;;;;;;3.20;2.92;;;17.30;50.40;;;;;;4872984;29;20687;-71
2021/03/26 04:04:43;;;;;;;3.22;2.63;;;17.30;50.50;;;;;;4915749;29;20175;-71
2021/03/26 04:07:27;;;;;;;3.05;2.85;;;17.30;50.50;;;;;;4915924;29;20199;-71
2021/03/26 04:09:55;;;;;;;3.38;3.08;;;17.30;50.50;;;;;;4915807;29;20258;-71
2021/03/26 04:12:23;;;;;;;3.22;2.90;;;17.20;50.40;;;;;;4915617;29;20560;-69
2021/03/26 04:14:58;;;;;;;3.25;2.95;;;17.20;50.40;;;;;;4915087;29;20176;-69
2021/03/26 04:17:29;;;;;;;3.28;3.00;;;17.20;50.40;;;;;;4916694;29;20655;-69
2021/03/26 04:19:58;;;;;;;3.15;2.95;;;17.20;50.50;;;;;;4915653;29;20219;-69
2021/03/26 04:22:26;;;;;;;3.15;2.95;;;17.20;50.50;;;;;;4914925;29;20175;-70
2021/03/26 04:25:03;;;;;;;3.13;2.92;;;17.20;50.50;;;;;;4899845;29;20398;-69
2021/03/26 04:27:29;;;;;;;3.42;3.20;;;17.20;51.20;;;;;;4915356;29;20167;-68
2021/03/26 04:30:13;;;;;;;2.88;2.67;;;17.20;50.50;;;;;;4914927;29;20168;-68
2021/03/26 04:32:39;;;;;;;3.00;2.80;;;17.20;50.50;;;;;;4915209;29;20686;-70
2021/03/26 04:35:06;;;;;;;3.17;2.92;;;17.20;50.60;;;;;;4899596;29;20180;-71
2021/03/26 04:37:32;;;;;;;3.05;2.85;;;17.20;50.60;;;;;;4898789;29;20180;-71
2021/03/26 04:40:08;;;;;;;2.90;2.70;;;17.20;50.60;;;;;;4916463;29;20350;-69
2021/03/26 04:42:47;;;;;;;3.03;2.75;;;17.10;50.60;;;;;;4914607;29;20171;-69
2021/03/26 04:45:21;;;;;;;3.00;2.80;;;17.10;50.60;;;;;;4915329;29;20262;-69
2021/03/26 04:47:57;;;;;;;3.08;2.80;;;17.10;50.60;;;;;;4915548;29;20172;-69
2021/03/26 04:50:35;;;;;;;3.20;3.00;;;17.10;51.20;;;;;;4914492;29;20167;-69
2021/03/26 04:53:03;;;;;;;3.13;2.90;;;17.10;50.60;;;;;;4915310;29;20175;-69
2021/03/26 04:55:32;;;;;;;3.40;3.20;;;17.10;50.60;;;;;;4914921;29;20676;-69
2021/03/26 04:58:11;;;;;;;3.03;2.80;;;17.10;50.60;;;;;;4914565;29;20247;-69
2021/03/26 05:00:40;;;;;;;2.97;2.70;;;17.10;50.60;;;;;;4914765;29;20303;-70
2021/03/26 05:03:21;;;;;;;3.15;2.95;;;17.10;50.60;;;;;;4916714;29;20172;-70
2021/03/26 05:05:52;;;;;;;3.38;3.08;;;17.10;50.60;;;;;;4918591;29;20275;-71
2021/03/26 05:08:18;;;;;;;3.50;3.20;;;17.10;50.70;;;;;;4919128;29;20255;-70
2021/03/26 05:10:43;;;;;;;3.25;3.05;;;17.10;50.70;;;;;;4918505;29;20183;-70
2021/03/26 05:13:12;;;;;;;3.03;2.83;;;17.10;50.70;;;;;;4918983;29;20172;-70
2021/03/26 05:15:47;;;;;;;3.00;2.80;;;17.10;50.70;;;;;;4918685;29;20176;-70
2021/03/26 05:18:18;;;;;;;3.00;2.70;;;17.10;50.80;;;;;;4918193;29;20203;-70
2021/03/26 05:21:30;;;;;;;2.85;2.65;;;17.10;50.80;;;;;;4918858;29;20176;-70
2021/03/26 05:23:56;;;;;;;2.78;2.58;;;17.10;50.70;;;;;;4887694;29;20199;-68
2021/03/26 05:26:21;;;;;;;2.60;2.40;;;17.10;50.80;;;;;;4919104;29;20176;-69
2021/03/26 05:28:47;;;;;;;2.80;2.60;;;17.10;50.80;;;;;;4918770;29;20176;-68
2021/03/26 05:31:39;;;;;;;2.88;2.67;;;17.00;50.80;;;;;;4918240;29;20591;-68
2021/03/26 05:34:15;;;;;;;3.65;3.35;;;17.10;50.80;;;;;;4892365;29;20227;-70
2021/03/26 05:37:00;;;;;;;2.80;2.60;;;17.00;50.80;;;;;;4918366;29;20175;-70
2021/03/26 05:39:28;;;;;;;3.13;2.83;;;17.00;51.50;;;;;;4917670;29;20206;-70
2021/03/26 05:42:19;;;;;;;2.95;2.75;;;17.00;50.80;;;;;;4918331;29;20195;-69
2021/03/26 05:44:59;;;;;;;3.08;2.88;;;17.00;50.90;;;;;;4918637;29;20187;-68
2021/03/26 05:47:40;;;;;;;2.90;2.70;;;17.00;50.80;;;;;;4901860;29;20187;-69
2021/03/26 05:50:26;;;;;;;2.90;2.70;;;17.00;50.90;;;;;;4918305;29;20247;-68
2021/03/26 05:53:12;;;;;;;2.88;2.67;;;17.00;50.90;;;;;;4917857;29;20196;-67
2021/03/26 05:56:06;;;;;;;2.95;2.72;;;17.00;50.90;;;;;;4889606;29;20196;-69
2021/03/26 05:58:37;;;;;;;3.03;2.83;;;17.00;50.90;;;;;;4917988;29;20204;-69
2021/03/26 06:01:18;;;;;;;2.42;2.33;;;17.00;50.90;;;;;;4917291;29;20246;-69
2021/03/26 06:04:11;;;;;;;2.63;2.42;;;17.00;51.00;;;;;;4917980;29;20284;-69
2021/03/26 06:06:59;;;;;;;3.13;2.92;;;17.00;51.00;;;;;;4918012;29;20184;-69
2021/03/26 06:10:15;;;;;;;3.17;2.97;;;17.00;50.90;;;;;;4918803;29;20187;-69
2021/03/26 06:12:56;;;;;;;2.85;2.65;;;17.00;50.90;;;;;;4894311;29;20230;-69
2021/03/26 06:15:44;;;;;;;2.90;2.70;;;17.10;51.10;;;;;;4916609;29;20172;-69
2021/03/26 06:18:27;;;;;;;3.08;2.75;;;17.20;51.20;;;;;;4918882;29;20207;-70
2021/03/26 06:21:19;;;;;;;2.78;2.58;;;17.30;50.90;;;;;;4918831;29;20172;-68
2021/03/26 06:23:50;;;;;;;2.60;2.40;;;17.50;50.70;;;;;;4918841;29;20180;-68
2021/03/26 06:26:24;;;;;;;3.00;2.80;;;17.60;50.40;;;;;;4917977;29;20179;-70
2021/03/26 06:29:08;;;;;;;3.13;2.90;;;17.60;50.30;;;;;;4918371;29;20254;-67
2021/03/26 06:31:57;;;;;;;2.25;2.13;;;17.70;50.30;;;;;;4918693;29;20636;-68
2021/03/26 06:34:39;;;;;;;3.15;2.90;;;17.80;50.30;;;;;;4917145;29;20636;-71
2021/03/26 06:37:26;;;;;;;2.67;2.47;;;17.90;50.20;;;;;;4916940;29;20172;-70
2021/03/26 06:39:59;;;;;;;2.15;2.05;;;18.00;49.90;;;;;;4918520;29;20214;-69
2021/03/26 06:42:55;;;;;;;2.90;2.70;;;18.20;49.80;;;;;;4917624;29;20655;-70
2021/03/26 06:45:45;;;;;;;2.47;2.28;;;18.20;49.70;;;;;;4917268;29;20184;-67
2021/03/26 06:48:17;;;;;;;2.67;2.47;;;18.30;49.60;;;;;;4918443;29;20263;-68
2021/03/26 06:51:05;;;;;;;2.72;2.40;;;18.40;49.80;;;;;;4916396;29;20172;-68
2021/03/26 06:53:34;;;;;;;4.30;3.20;;;18.40;49.30;;;;;;4916928;29;20416;-62
2021/03/26 06:56:31;;;;;;;4.88;2.40;;;18.60;49.30;;;;;;4918298;29;20255;-61
2021/03/26 06:58:59;;;;;;;3.53;2.88;;;18.70;49.50;;;;;;4916982;29;20718;-78
2021/03/26 07:01:33;;;;;;;3.97;2.72;;;18.70;49.60;;;;;;4917977;29;20306;-64
2021/03/26 07:04:08;;;;;;;5.80;3.00;;;18.70;49.80;;;;;;4916179;29;20180;-66
2021/03/26 07:07:09;;;;;;;3.45;3.08;;;18.70;49.80;;;;;;4917972;29;20171;-72
2021/03/26 07:09:46;;;;;;;7.75;2.88;;;18.60;50.10;;;;;;4859580;29;20653;-65
2021/03/26 07:12:24;;;;;;;2.78;2.47;;;18.50;50.20;;;;;;4908582;29;20674;-71
2021/03/26 07:14:57;;;;;;;2.42;2.15;;;18.50;50.60;;;;;;4917680;29;20191;-65
2021/03/26 07:18:01;;;;;;;6.32;3.35;;;18.50;50.70;;;;;;4915961;29;20188;-71
2021/03/26 07:20:46;;;;;;;4.25;2.63;;;18.40;50.80;;;;;;4917634;29;20656;-70
2021/03/26 07:23:47;;;;;;;3.47;3.08;;;18.40;50.90;;;;;;4916650;29;20707;-71
2021/03/26 07:26:35;;;;;;;3.83;2.60;;;18.30;51.10;;;;;;4916286;29;20267;-68
2021/03/26 07:29:30;;;;;;;3.40;2.75;;;18.30;51.30;;;;;;4916455;29;20172;-71
2021/03/26 07:31:59;;;;;;;4.25;3.22;;;18.20;51.40;;;;;;4916065;29;20176;-63
2021/03/26 07:34:35;;;;;;;4.47;2.38;;;18.20;51.20;;;;;;4917306;29;20252;-71
2021/03/26 07:37:01;;;;;;;6.95;2.75;;;18.20;51.60;;;;;;4916540;29;20179;-69
2021/03/26 07:40:11;;;;;;;4.95;2.55;;;18.10;51.60;;;;;;4916912;29;20672;-69
2021/03/26 07:43:02;;;;;;;5.32;2.55;;;18.10;51.50;;;;;;4917204;29;20179;-67
2021/03/26 07:46:05;;;;;;;3.38;2.63;;;18.10;51.90;;;;;;4915341;29;20636;-67
2021/03/26 07:48:54;;;;;;;4.25;2.70;;;18.00;52.00;;;;;;4917096;29;20190;-72
2021/03/26 07:51:38;;;;;;;4.75;3.00;;;18.00;52.00;;;;;;4917037;29;20175;-67
2021/03/26 07:54:17;;;;;;;6.13;3.15;;;18.00;51.90;;;;;;4915464;29;20707;-69
2021/03/26 07:57:19;;;;;;;4.10;3.25;;;18.00;51.80;;;;;;4915841;29;20164;-67
2021/03/26 08:00:06;;;;;;;4.43;2.90;;;17.90;52.00;;;;;;4916323;29;20231;-63
2021/03/26 08:02:49;;;;;;;5.53;2.95;;;17.90;52.20;;;;;;4916895;29;20176;-70
2021/03/26 08:05:20;;;;;;;6.28;3.17;;;17.80;52.20;;;;;;4917058;29;20208;-64
2021/03/26 08:08:26;;;;;;;4.07;2.65;;;17.80;52.20;;;;;;4915178;29;20180;-64
2021/03/26 08:11:29;;;;;;;3.83;3.15;;;17.90;52.00;;;;;;4870339;29;20655;-64
2021/03/26 08:14:28;;;;;;;3.60;2.92;;;17.90;52.00;;;;;;4916291;29;20218;-70
2021/03/26 08:17:17;;;;;;;5.90;3.15;;;17.90;52.20;;;;;;4878016;29;20222;-69
2021/03/26 08:19:48;;;;;;;3.58;2.95;;;18.00;52.20;;;;;;4915514;29;20310;-64
2021/03/26 08:22:16;;;;;;;4.30;3.30;;;18.00;52.70;;;;;;4915016;29;20614;-71
2021/03/26 08:24:44;;;;;;;4.97;3.35;;;18.00;52.20;;;;;;4915332;29;20522;-68
2021/03/26 08:27:33;;;;;;;4.75;3.13;;;18.10;52.10;;;;;;4916644;29;20172;-64
2021/03/26 08:30:22;;;;;;;6.78;3.33;;;18.00;52.00;;;;;;4915521;29;20544;-68
2021/03/26 08:33:12;;;;;;;3.63;3.15;;;18.10;52.10;;;;;;4915812;29;20603;-64
2021/03/26 08:35:48;;;;;;;4.50;3.22;;;18.10;52.10;;;;;;4915796;29;20231;-68
2021/03/26 08:38:16;;;;;;;5.05;3.15;;;18.10;52.10;;;;;;4916341;29;20179;-64
2021/03/26 08:40:55;;;;;;;5.00;3.45;;;18.10;52.10;;;;;;4916269;29;20239;-64
2021/03/26 08:43:21;;;;;;;5.65;2.88;;;18.10;52.10;;;;;;4898741;29;20223;-68
2021/03/26 08:46:16;;;;;;;6.18;3.65;;;18.20;52.20;;;;;;4915260;29;20779;-68
2021/03/26 08:48:47;;;;;;;3.85;3.17;;;18.20;52.10;;;;;;4914475;29;20690;-66
2021/03/26 08:51:38;;;;;;;3.67;3.05;;;18.20;52.20;;;;;;4899448;29;20644;-68
2021/03/26 08:54:23;;;;;;;4.32;3.25;;;18.20;52.20;;;;;;4916253;29;20548;-64
2021/03/26 08:57:07;;;;;;;5.80;3.15;;;18.20;52.10;;;;;;4886371;29;20192;-68
2021/03/26 08:59:37;;;;;;;4.45;3.10;;;18.20;52.10;;;;;;4915875;29;20215;-68
2021/03/26 09:02:28;;;;;;;3.72;3.30;;;18.30;52.20;;;;;;4899430;29;20640;-68
2021/03/26 09:05:10;;;;;;;3.63;3.33;;;18.20;52.10;;;;;;4915586;29;20223;-68
2021/03/26 09:08:04;;;;;;;4.40;3.63;;;18.30;52.20;;;;;;4914906;29;20255;-64
2021/03/26 09:10:57;;;;;;;3.58;3.15;;;18.30;52.20;;;;;;4914357;29;20200;-69
2021/03/26 09:13:50;;;;;;;4.75;3.13;;;18.30;52.30;;;;;;4916044;29;20186;-69
2021/03/26 09:16:30;;;;;;;3.65;2.80;;;18.30;52.30;;;;;;4916193;29;20176;-65
2021/03/26 09:19:05;;;;;;;3.13;2.83;;;18.30;52.30;;;;;;4898526;29;20239;-69
2021/03/26 09:21:43;;;;;;;4.63;3.22;;;18.30;52.30;;;;;;4915877;29;20636;-69
2021/03/26 09:24:30;;;;;;;3.67;3.03;;;18.40;52.30;;;;;;4915545;29;20643;-68
2021/03/26 09:27:34;;;;;;;4.57;3.05;;;18.40;52.30;;;;;;4916104;29;20187;-67
2021/03/26 09:30:25;;;;;;;4.05;3.22;;;18.40;52.30;;;;;;4915066;29;20179;-68
2021/03/26 09:32:56;;;;;;;4.10;2.63;;;18.40;52.30;;;;;;4914291;29;20219;-68
2021/03/26 09:35:41;;;;;;;2.95;2.63;;;18.50;52.30;;;;;;4914616;29;20176;-69
2021/03/26 09:38:10;;;;;;;2.83;2.60;;;18.50;52.20;;;;;;4914193;29;20176;-69
2021/03/26 09:41:03;;;;;;;4.28;3.00;;;18.50;52.20;;;;;;4915834;29;20183;-68
2021/03/26 09:43:34;;;;;;;4.15;2.47;;;18.50;52.30;;;;;;4915671;29;20168;-68
2021/03/26 09:46:01;;;;;;;3.22;2.83;;;18.50;52.30;;;;;;4914138;29;20672;-68
2021/03/26 09:48:41;;;;;;;2.92;2.47;;;18.50;52.30;;;;;;4916085;29;20672;-69
2021/03/26 09:51:16;;;;;;;3.47;2.85;;;18.50;52.40;;;;;;4918308;29;20211;-68
2021/03/26 09:53:41;;;;;;;3.30;2.72;;;18.40;52.40;;;;;;4918508;29;20178;-68
2021/03/26 09:56:19;;;;;;;2.70;2.50;;;18.40;52.50;;;;;;4902386;29;20180;-66
2021/03/26 09:59:09;;;;;;;2.95;2.67;;;18.40;52.50;;;;;;4919309;29;20203;-68
2021/03/26 10:01:39;;;;;;;3.95;2.78;;;18.40;52.50;;;;;;4917728;29;20290;-69
2021/03/26 10:04:20;;;;;;;2.28;2.08;;;18.50;52.50;;;;;;4917892;29;20176;-69
2021/03/26 10:06:55;;;;;;;2.38;2.17;;;18.50;52.40;;;;;;4917481;29;20545;-68
2021/03/26 10:09:39;;;;;;;2.55;2.35;;;18.50;52.30;;;;;;4919034;29;20666;-68
2021/03/26 10:12:24;;;;;;;2.97;2.75;;;18.50;52.30;;;;;;4918205;29;20172;-71
2021/03/26 10:15:00;;;;;;;3.78;2.70;;;18.60;52.30;;;;;;4917188;29;20167;-72
2021/03/26 10:17:41;;;;;;;3.13;2.20;;;18.60;52.30;;;;;;4918046;29;20180;-62
2021/03/26 10:20:11;;;;;;;2.60;2.40;;;18.50;52.40;;;;;;4918201;29;20310;-72
2021/03/26 10:22:40;;;;;;;2.58;2.38;;;18.50;52.50;;;;;;4917627;29;20179;-72
2021/03/26 10:25:49;;;;;;;3.17;2.60;;;18.40;52.50;;;;;;4918782;29;20176;-79
2021/03/26 10:28:32;;;;;;;2.67;2.40;;;18.40;52.50;;;;;;4909723;29;20188;-73
2021/03/26 10:31:02;;;;;;;4.70;2.40;;;18.40;52.50;;;;;;4918861;29;20231;-64
2021/03/26 10:33:29;;;;;;;3.25;2.25;;;18.40;52.50;;;;;;4917324;29;20223;-66
2021/03/26 10:36:02;;;;;;;5.68;2.63;;;18.30;52.60;;;;;;4916861;29;20172;-66
2021/03/26 10:38:37;;;;;;;2.47;2.28;;;18.40;52.50;;;;;;4901274;29;20211;-66
2021/03/26 10:41:07;;;;;;;5.43;2.60;;;18.30;52.50;;;;;;4917251;29;20666;-74
2021/03/26 10:43:34;;;;;;;3.75;2.60;;;18.30;52.60;;;;;;4901181;29;20192;-78
2021/03/26 10:46:01;;;;;;;3.35;2.45;;;18.30;52.60;;;;;;4918540;29;20650;-84
2021/03/26 10:48:43;;;;;;;3.47;2.65;;;18.30;52.60;;;;;;4916377;29;20199;-74
2021/03/26 10:51:19;;;;;;;2.05;1.95;;;18.30;52.60;;;;;;4917408;29;20184;-62
2021/03/26 10:54:10;;;;;;;2.35;2.00;;;18.30;52.60;;;;;;4916963;29;20181;-83
2021/03/26 10:57:01;;;;;;;2.03;1.80;;;18.30;52.50;;;;;;4911277;29;20230;-82
2021/03/26 10:59:51;;;;;;;3.42;2.30;;;18.30;52.50;;;;;;4916697;29;20235;-63
2021/03/26 11:02:49;;;;;;;2.78;2.33;;;18.30;52.40;;;;;;4916647;29;20194;-79
2021/03/26 11:05:44;;;;;;;4.28;2.40;;;18.30;52.30;;;;;;4901073;29;20244;-78
2021/03/26 11:08:18;;;;;;;2.60;2.13;;;18.30;52.30;;;;;;4912710;29;20187;-69
2021/03/26 11:10:54;;;;;;;4.78;2.78;;;18.20;52.30;;;;;;4916222;29;20179;-66
2021/03/26 11:13:45;;;;;;;3.47;2.08;;;18.20;52.30;;;;;;4916526;29;20199;-65
2021/03/26 11:16:42;;;;;;;3.30;2.35;;;18.30;52.40;;;;;;4917098;29;20180;-63
2021/03/26 11:19:33;;;;;;;4.18;2.17;;;18.20;52.30;;;;;;4914515;29;20696;-64
2021/03/26 11:22:26;;;;;;;4.00;2.50;;;18.20;52.20;;;;;;4917731;29;20245;-73
2021/03/26 11:25:05;;;;;;;8.68;2.28;;;18.20;52.30;;;;;;4916001;29;20172;-64
2021/03/26 11:27:46;;;;;;;4.50;2.20;;;18.30;52.30;;;;;;4916367;29;20643;-73
2021/03/26 11:30:34;;;;;;;3.63;2.47;;;18.30;52.10;;;;;;4916500;29;20175;-73
2021/03/26 11:33:40;;;;;;;3.38;2.17;;;18.40;52.20;;;;;;4916602;29;20278;-73
2021/03/26 11:36:44;;;;;;;4.13;2.22;;;18.30;52.10;;;;;;4916218;29;20175;-66
2021/03/26 11:39:12;;;;;;;3.13;2.05;;;18.50;51.90;;;;;;4916772;29;20206;-74
2021/03/26 11:41:59;;;;;;;2.95;1.85;;;18.60;51.80;;;;;;4917393;29;20184;-66
2021/03/26 11:44:30;;;;;;;4.03;1.70;;;18.60;51.60;;;;;;4916033;29;20258;-64
2021/03/26 11:46:57;;;;;;;2.53;1.90;;;18.60;51.50;;;;;;4916359;29;20592;-73
2021/03/26 11:49:31;;;;;;;3.55;1.58;;;18.70;51.40;;;;;;4915886;29;20196;-74
2021/03/26 11:52:11;;;;;;;1.85;1.63;;;18.80;51.40;;;;;;4915476;29;20179;-75
2021/03/26 11:54:55;;;;;;;2.08;1.85;;;18.90;51.30;;;;;;4915796;29;20179;-70
2021/03/26 11:57:27;;;;;;;2.05;1.60;;;18.90;51.10;;;;;;4915862;29;20176;-74
2021/03/26 12:00:04;;;;;;;7.97;2.45;;;18.90;51.10;;;;;;4910252;29;20220;-75
2021/03/26 12:02:49;;;;;;;3.53;1.90;;;18.90;51.10;;;;;;4882716;29;20180;-73
2021/03/26 12:05:39;;;;;;;3.97;2.10;;;19.00;51.10;;;;;;4881538;29;20185;-74
2021/03/26 12:08:14;;;;;;;2.38;1.75;;;19.00;51.00;;;;;;4898249;29;20539;-71
2021/03/26 12:10:42;;;;;;;5.13;1.90;;;19.00;51.10;;;;;;4881371;29;20229;-65
2021/03/26 12:13:50;;;;;;;3.20;1.90;;;19.10;51.10;;;;;;4880536;29;20213;-71
2021/03/26 12:16:20;;;;;;;3.00;1.55;;;19.00;51.00;;;;;;4884324;29;20225;-67
2021/03/26 12:18:47;;;;;;;1.92;1.65;;;19.10;51.10;;;;;;4865664;29;20295;-65
2021/03/26 12:21:19;;;;;;;1.50;1.40;;;19.20;51.00;;;;;;4897429;29;20633;-72
2021/03/26 12:23:48;;;;;;;2.03;1.50;;;19.20;51.00;;;;;;4881739;29;20177;-72
2021/03/26 12:26:19;;;;;;;4.68;1.70;;;19.10;51.00;;;;;;4881249;29;20168;-73
2021/03/26 12:28:56;;;;;;;2.90;1.65;;;19.20;51.70;;;;;;4880790;29;20176;-64
2021/03/26 12:31:48;;;;;;;1.90;1.60;;;19.20;51.10;;;;;;4896280;29;20199;-72
2021/03/26 12:34:19;;;;;;;2.67;1.50;;;19.20;51.00;;;;;;4882984;29;20207;-73
2021/03/26 12:36:54;;;;;;;2.58;1.85;;;19.30;51.00;;;;;;4881217;29;20169;-75
2021/03/26 12:39:40;;;;;;;3.03;1.52;;;19.30;50.90;;;;;;4880869;29;20235;-63
2021/03/26 12:42:13;;;;;;;1.73;1.42;;;19.20;51.60;;;;;;4880948;29;20188;-72
2021/03/26 12:44:41;;;;;;;3.88;1.55;;;19.20;51.00;;;;;;4881260;29;20168;-74
2021/03/26 12:47:16;;;;;;;2.88;1.73;;;19.20;51.00;;;;;;4880872;29;20169;-65
2021/03/26 12:50:07;;;;;;;1.95;1.85;;;19.20;50.80;;;;;;4896828;29;20168;-69
2021/03/26 12:52:43;;;;;;;1.40;1.20;;;19.30;50.80;;;;;;4888536;29;20279;-76
2021/03/26 12:55:41;;;;;;;3.05;1.52;;;19.30;50.80;;;;;;4881358;29;20255;-71
2021/03/26 12:58:15;;;;;;;2.60;1.60;;;19.30;50.80;;;;;;4897652;29;20239;-79
2021/03/26 13:01:07;;;;;;;2.13;1.70;;;19.30;50.70;;;;;;4908015;29;20223;-63
2021/03/26 13:03:36;;;;;;;3.13;1.58;;;19.30;50.70;;;;;;4914305;29;20662;-68
2021/03/26 13:06:23;;;;;;;2.38;1.60;;;19.30;50.60;;;;;;4915019;29;20581;-76
2021/03/26 13:08:51;;;;;;;2.22;1.60;;;19.30;50.60;;;;;;4915030;29;20263;-64
2021/03/26 13:11:26;;;;;;;3.75;1.80;;;19.40;50.40;;;;;;4915189;29;20755;-73
2021/03/26 13:13:52;;;;;;;1.85;1.30;;;19.40;50.50;;;;;;4914637;29;20180;-75
2021/03/26 13:16:43;;;;;;;2.08;1.38;;;19.30;50.50;;;;;;4915726;29;20186;-76
2021/03/26 13:19:21;;;;;;;2.60;1.40;;;19.40;50.30;;;;;;4914875;29;20577;-76
2021/03/26 13:21:59;;;;;;;2.58;1.35;;;19.30;50.40;;;;;;4916201;29;20171;-70
2021/03/26 13:24:55;;;;;;;1.60;1.50;;;19.30;50.50;;;;;;4916065;29;20227;-70
2021/03/26 13:27:24;;;;;;;2.17;1.52;;;19.20;50.40;;;;;;4902852;29;20239;-74
2021/03/26 13:30:10;;;;;;;3.58;1.50;;;19.10;50.60;;;;;;4918728;29;20172;-76
2021/03/26 13:33:19;;;;;;;2.75;1.50;;;19.10;50.70;;;;;;4919898;29;20179;-76
2021/03/26 13:35:50;;;;;;;4.00;1.42;;;19.00;50.80;;;;;;4902943;29;20171;-75
2021/03/26 13:38:22;;;;;;;1.80;1.38;;;19.00;50.90;;;;;;4902205;29;20188;-74
2021/03/26 13:40:50;;;;;;;3.53;1.92;;;19.20;50.70;;;;;;4918525;29;20198;-70
2021/03/26 13:43:24;;;;;;;1.45;1.35;;;19.20;50.60;;;;;;4918590;29;20175;-70